sensor_id;sensor_type;location;lat;lon;timestamp;P1;durP1;ratioP1;P2;durP2;ratioP2
59571;SDS011;74587;45.880;11.484;2024-01-15T00:02:07;26.92;;;11.05;;
59571;SDS011;74587;45.880;11.484;2024-01-15T00:04:37;26.35;;;10.50;;
59571;SDS011;74587;45.880;11.484;2024-01-15T00:07:03;24.80;;;9.80;;
59571;SDS011;74587;45.880;11.484;2024-01-15T00:09:29;27.08;;;9.98;;
59571;SDS011;74587;45.880;11.484;2024-01-15T00:11:55;23.00;;;10.32;;
59571;SDS011;74587;45.880;11.484;2024-01-15T00:14:21;26.43;;;10.10;;
59571;SDS011;74587;45.880;11.484;2024-01-15T00:16:47;23.27;;;9.52;;
59571;SDS011;74587;45.880;11.484;2024-01-15T00:19:15;28.58;;;10.95;;
59571;SDS011;74587;45.880;11.484;2024-01-15T00:21:41;26.27;;;10.30;;
59571;SDS011;74587;45.880;11.484;2024-01-15T00:24:07;25.30;;;8.77;;
59571;SDS011;74587;45.880;11.484;2024-01-15T00:26:33;20.42;;;8.40;;
59571;SDS011;74587;45.880;11.484;2024-01-15T00:31:58;25.33;;;8.75;;
59571;SDS011;74587;45.880;11.484;2024-01-15T00:34:23;24.42;;;9.30;;
59571;SDS011;74587;45.880;11.484;2024-01-15T00:36:49;24.13;;;9.03;;
59571;SDS011;74587;45.880;11.484;2024-01-15T00:39:15;22.53;;;8.93;;
59571;SDS011;74587;45.880;11.484;2024-01-15T00:41:41;24.42;;;8.77;;
59571;SDS011;74587;45.880;11.484;2024-01-15T00:44:07;23.63;;;8.57;;
59571;SDS011;74587;45.880;11.484;2024-01-15T00:46:33;22.57;;;8.27;;
59571;SDS011;74587;45.880;11.484;2024-01-15T00:49:05;23.75;;;9.65;;
59571;SDS011;74587;45.880;11.484;2024-01-15T00:51:31;26.60;;;10.23;;
59571;SDS011;74587;45.880;11.484;2024-01-15T00:53:57;25.63;;;9.53;;
59571;SDS011;74587;45.880;11.484;2024-01-15T00:56:22;25.23;;;10.13;;
59571;SDS011;74587;45.880;11.484;2024-01-15T00:58:48;25.53;;;9.33;;
59571;SDS011;74587;45.880;11.484;2024-01-15T01:01:14;23.60;;;9.60;;
59571;SDS011;74587;45.880;11.484;2024-01-15T01:03:40;25.07;;;9.03;;
59571;SDS011;74587;45.880;11.484;2024-01-15T01:06:05;25.98;;;9.85;;
59571;SDS011;74587;45.880;11.484;2024-01-15T01:08:31;26.03;;;9.93;;
59571;SDS011;74587;45.880;11.484;2024-01-15T01:10:57;25.38;;;10.07;;
59571;SDS011;74587;45.880;11.484;2024-01-15T01:13:22;22.90;;;9.27;;
59571;SDS011;74587;45.880;11.484;2024-01-15T01:15:48;23.92;;;9.65;;
59571;SDS011;74587;45.880;11.484;2024-01-15T01:18:14;23.70;;;9.90;;
59571;SDS011;74587;45.880;11.484;2024-01-15T01:20:39;23.40;;;8.93;;
59571;SDS011;74587;45.880;11.484;2024-01-15T01:23:05;23.20;;;8.73;;
59571;SDS011;74587;45.880;11.484;2024-01-15T01:25:31;22.52;;;9.10;;
59571;SDS011;74587;45.880;11.484;2024-01-15T01:27:56;23.53;;;9.70;;
59571;SDS011;74587;45.880;11.484;2024-01-15T01:30:23;24.67;;;10.15;;
59571;SDS011;74587;45.880;11.484;2024-01-15T01:32:49;21.47;;;9.70;;
59571;SDS011;74587;45.880;11.484;2024-01-15T01:35:15;24.45;;;9.38;;
59571;SDS011;74587;45.880;11.484;2024-01-15T01:37:40;26.20;;;9.77;;
59571;SDS011;74587;45.880;11.484;2024-01-15T01:40:06;24.48;;;10.02;;
59571;SDS011;74587;45.880;11.484;2024-01-15T01:42:33;22.25;;;8.75;;
59571;SDS011;74587;45.880;11.484;2024-01-15T01:44:58;25.63;;;10.13;;
59571;SDS011;74587;45.880;11.484;2024-01-15T01:47:24;23.33;;;9.35;;
59571;SDS011;74587;45.880;11.484;2024-01-15T01:49:51;23.07;;;9.47;;
59571;SDS011;74587;45.880;11.484;2024-01-15T01:52:18;24.90;;;9.75;;
59571;SDS011;74587;45.880;11.484;2024-01-15T01:54:44;24.70;;;10.02;;
59571;SDS011;74587;45.880;11.484;2024-01-15T01:57:10;23.80;;;9.00;;
59571;SDS011;74587;45.880;11.484;2024-01-15T01:59:37;28.65;;;10.35;;
59571;SDS011;74587;45.880;11.484;2024-01-15T02:02:03;24.23;;;9.65;;
59571;SDS011;74587;45.880;11.484;2024-01-15T02:04:30;24.20;;;9.95;;
59571;SDS011;74587;45.880;11.484;2024-01-15T02:06:57;25.08;;;9.93;;
59571;SDS011;74587;45.880;11.484;2024-01-15T02:09:23;21.87;;;9.23;;
59571;SDS011;74587;45.880;11.484;2024-01-15T02:11:50;24.77;;;9.50;;
59571;SDS011;74587;45.880;11.484;2024-01-15T02:14:16;23.88;;;9.20;;
59571;SDS011;74587;45.880;11.484;2024-01-15T02:16:41;21.67;;;9.37;;
59571;SDS011;74587;45.880;11.484;2024-01-15T02:19:07;22.60;;;8.67;;
59571;SDS011;74587;45.880;11.484;2024-01-15T02:21:39;21.33;;;8.43;;
59571;SDS011;74587;45.880;11.484;2024-01-15T02:24:05;21.17;;;8.03;;
59571;SDS011;74587;45.880;11.484;2024-01-15T02:26:31;19.10;;;8.02;;
59571;SDS011;74587;45.880;11.484;2024-01-15T02:29:00;20.30;;;7.70;;
59571;SDS011;74587;45.880;11.484;2024-01-15T02:31:27;18.83;;;7.72;;
59571;SDS011;74587;45.880;11.484;2024-01-15T02:33:53;19.43;;;7.13;;
59571;SDS011;74587;45.880;11.484;2024-01-15T02:36:18;17.95;;;8.05;;
59571;SDS011;74587;45.880;11.484;2024-01-15T02:38:44;20.77;;;7.33;;
59571;SDS011;74587;45.880;11.484;2024-01-15T02:41:10;18.95;;;7.18;;
59571;SDS011;74587;45.880;11.484;2024-01-15T02:43:35;17.17;;;6.67;;
59571;SDS011;74587;45.880;11.484;2024-01-15T02:46:01;16.83;;;6.38;;
59571;SDS011;74587;45.880;11.484;2024-01-15T02:48:27;18.03;;;7.30;;
59571;SDS011;74587;45.880;11.484;2024-01-15T02:50:52;19.02;;;7.10;;
59571;SDS011;74587;45.880;11.484;2024-01-15T02:53:18;20.90;;;7.00;;
59571;SDS011;74587;45.880;11.484;2024-01-15T02:55:44;23.63;;;7.68;;
59571;SDS011;74587;45.880;11.484;2024-01-15T02:58:09;19.97;;;7.37;;
59571;SDS011;74587;45.880;11.484;2024-01-15T03:03:56;21.10;;;7.43;;
59571;SDS011;74587;45.880;11.484;2024-01-15T03:06:22;17.20;;;7.10;;
59571;SDS011;74587;45.880;11.484;2024-01-15T03:08:48;20.77;;;7.50;;
59571;SDS011;74587;45.880;11.484;2024-01-15T03:11:13;22.83;;;7.60;;
59571;SDS011;74587;45.880;11.484;2024-01-15T03:13:39;17.52;;;7.13;;
59571;SDS011;74587;45.880;11.484;2024-01-15T03:16:05;16.93;;;6.90;;
59571;SDS011;74587;45.880;11.484;2024-01-15T03:18:31;21.15;;;7.32;;
59571;SDS011;74587;45.880;11.484;2024-01-15T03:20:57;17.40;;;7.78;;
59571;SDS011;74587;45.880;11.484;2024-01-15T03:23:22;22.50;;;7.07;;
59571;SDS011;74587;45.880;11.484;2024-01-15T03:25:48;18.60;;;7.70;;
59571;SDS011;74587;45.880;11.484;2024-01-15T03:28:14;20.47;;;6.90;;
59571;SDS011;74587;45.880;11.484;2024-01-15T03:30:40;19.50;;;6.78;;
59571;SDS011;74587;45.880;11.484;2024-01-15T03:33:06;17.25;;;7.15;;
59571;SDS011;74587;45.880;11.484;2024-01-15T03:35:32;16.60;;;6.43;;
59571;SDS011;74587;45.880;11.484;2024-01-15T03:37:57;15.38;;;6.20;;
59571;SDS011;74587;45.880;11.484;2024-01-15T03:40:23;19.77;;;7.77;;
59571;SDS011;74587;45.880;11.484;2024-01-15T03:42:49;14.25;;;5.68;;
59571;SDS011;74587;45.880;11.484;2024-01-15T03:45:14;16.33;;;5.90;;
59571;SDS011;74587;45.880;11.484;2024-01-15T03:47:40;16.27;;;6.20;;
59571;SDS011;74587;45.880;11.484;2024-01-15T03:50:06;16.33;;;6.27;;
59571;SDS011;74587;45.880;11.484;2024-01-15T03:52:32;16.35;;;6.43;;
59571;SDS011;74587;45.880;11.484;2024-01-15T03:54:58;19.65;;;6.78;;
59571;SDS011;74587;45.880;11.484;2024-01-15T03:57:24;17.37;;;6.40;;
59571;SDS011;74587;45.880;11.484;2024-01-15T03:59:49;18.23;;;6.05;;
59571;SDS011;74587;45.880;11.484;2024-01-15T04:02:15;15.83;;;6.00;;
59571;SDS011;74587;45.880;11.484;2024-01-15T04:04:42;17.97;;;6.00;;
59571;SDS011;74587;45.880;11.484;2024-01-15T04:07:09;15.77;;;6.30;;
59571;SDS011;74587;45.880;11.484;2024-01-15T04:09:35;15.43;;;6.07;;
59571;SDS011;74587;45.880;11.484;2024-01-15T04:12:01;16.98;;;6.50;;
59571;SDS011;74587;45.880;11.484;2024-01-15T04:14:26;15.43;;;5.77;;
59571;SDS011;74587;45.880;11.484;2024-01-15T04:16:53;16.58;;;5.53;;
59571;SDS011;74587;45.880;11.484;2024-01-15T04:19:19;15.27;;;5.53;;
59571;SDS011;74587;45.880;11.484;2024-01-15T04:21:45;13.53;;;4.73;;
59571;SDS011;74587;45.880;11.484;2024-01-15T04:24:10;16.30;;;6.07;;
59571;SDS011;74587;45.880;11.484;2024-01-15T04:26:36;13.20;;;5.40;;
59571;SDS011;74587;45.880;11.484;2024-01-15T04:29:02;17.67;;;6.68;;
59571;SDS011;74587;45.880;11.484;2024-01-15T04:31:28;16.13;;;6.57;;
59571;SDS011;74587;45.880;11.484;2024-01-15T04:33:53;17.77;;;6.82;;
59571;SDS011;74587;45.880;11.484;2024-01-15T04:36:19;20.17;;;8.13;;
59571;SDS011;74587;45.880;11.484;2024-01-15T04:38:45;17.20;;;6.13;;
59571;SDS011;74587;45.880;11.484;2024-01-15T04:41:11;14.07;;;5.63;;
59571;SDS011;74587;45.880;11.484;2024-01-15T04:43:38;16.25;;;5.68;;
59571;SDS011;74587;45.880;11.484;2024-01-15T04:46:05;23.93;;;9.93;;
59571;SDS011;74587;45.880;11.484;2024-01-15T04:48:31;19.40;;;6.10;;
59571;SDS011;74587;45.880;11.484;2024-01-15T04:50:57;14.27;;;5.75;;
59571;SDS011;74587;45.880;11.484;2024-01-15T04:53:23;18.10;;;6.90;;
59571;SDS011;74587;45.880;11.484;2024-01-15T04:55:49;18.03;;;6.27;;
59571;SDS011;74587;45.880;11.484;2024-01-15T04:58:15;15.43;;;5.63;;
59571;SDS011;74587;45.880;11.484;2024-01-15T05:00:40;16.97;;;7.17;;
59571;SDS011;74587;45.880;11.484;2024-01-15T05:03:06;20.67;;;7.50;;
59571;SDS011;74587;45.880;11.484;2024-01-15T05:05:32;16.87;;;7.67;;
59571;SDS011;74587;45.880;11.484;2024-01-15T05:07:57;12.83;;;4.93;;
59571;SDS011;74587;45.880;11.484;2024-01-15T05:10:23;14.17;;;5.53;;
59571;SDS011;74587;45.880;11.484;2024-01-15T05:12:49;10.87;;;4.73;;
59571;SDS011;74587;45.880;11.484;2024-01-15T05:15:14;15.17;;;5.00;;
59571;SDS011;74587;45.880;11.484;2024-01-15T05:17:40;15.37;;;5.23;;
59571;SDS011;74587;45.880;11.484;2024-01-15T05:20:06;12.07;;;4.33;;
59571;SDS011;74587;45.880;11.484;2024-01-15T05:22:32;13.27;;;4.93;;
59571;SDS011;74587;45.880;11.484;2024-01-15T05:24:58;14.40;;;5.23;;
59571;SDS011;74587;45.880;11.484;2024-01-15T05:27:24;13.55;;;5.53;;
59571;SDS011;74587;45.880;11.484;2024-01-15T05:29:49;12.87;;;4.60;;
59571;SDS011;74587;45.880;11.484;2024-01-15T05:32:15;12.05;;;4.28;;
59571;SDS011;74587;45.880;11.484;2024-01-15T05:34:41;13.23;;;5.18;;
59571;SDS011;74587;45.880;11.484;2024-01-15T05:37:07;9.93;;;3.63;;
59571;SDS011;74587;45.880;11.484;2024-01-15T05:39:32;15.60;;;4.43;;
59571;SDS011;74587;45.880;11.484;2024-01-15T05:41:58;13.73;;;4.53;;
59571;SDS011;74587;45.880;11.484;2024-01-15T05:44:25;14.20;;;5.28;;
59571;SDS011;74587;45.880;11.484;2024-01-15T05:46:51;14.30;;;4.20;;
59571;SDS011;74587;45.880;11.484;2024-01-15T05:49:16;12.20;;;3.30;;
59571;SDS011;74587;45.880;11.484;2024-01-15T05:51:42;14.73;;;3.55;;
59571;SDS011;74587;45.880;11.484;2024-01-15T05:54:08;11.50;;;3.77;;
59571;SDS011;74587;45.880;11.484;2024-01-15T05:56:34;10.75;;;3.38;;
59571;SDS011;74587;45.880;11.484;2024-01-15T05:58:59;10.03;;;3.20;;
59571;SDS011;74587;45.880;11.484;2024-01-15T06:01:25;12.93;;;3.92;;
59571;SDS011;74587;45.880;11.484;2024-01-15T06:03:51;10.73;;;3.67;;
59571;SDS011;74587;45.880;11.484;2024-01-15T06:06:17;9.80;;;3.20;;
59571;SDS011;74587;45.880;11.484;2024-01-15T06:08:43;10.13;;;3.45;;
59571;SDS011;74587;45.880;11.484;2024-01-15T06:11:09;11.20;;;3.53;;
59571;SDS011;74587;45.880;11.484;2024-01-15T06:13:34;11.60;;;3.85;;
59571;SDS011;74587;45.880;11.484;2024-01-15T06:16:00;10.13;;;3.43;;
59571;SDS011;74587;45.880;11.484;2024-01-15T06:18:26;21.45;;;7.38;;
59571;SDS011;74587;45.880;11.484;2024-01-15T06:20:51;7.53;;;2.87;;
59571;SDS011;74587;45.880;11.484;2024-01-15T06:23:17;9.18;;;3.00;;
59571;SDS011;74587;45.880;11.484;2024-01-15T06:25:43;9.60;;;3.33;;
59571;SDS011;74587;45.880;11.484;2024-01-15T06:28:08;8.48;;;2.67;;
59571;SDS011;74587;45.880;11.484;2024-01-15T06:30:34;19.83;;;8.45;;
59571;SDS011;74587;45.880;11.484;2024-01-15T06:33:00;17.77;;;7.87;;
59571;SDS011;74587;45.880;11.484;2024-01-15T06:35:26;13.82;;;5.32;;
59571;SDS011;74587;45.880;11.484;2024-01-15T06:37:52;15.00;;;4.97;;
59571;SDS011;74587;45.880;11.484;2024-01-15T06:40:18;13.57;;;5.47;;
59571;SDS011;74587;45.880;11.484;2024-01-15T06:42:43;12.67;;;4.70;;
59571;SDS011;74587;45.880;11.484;2024-01-15T06:45:09;12.30;;;4.43;;
59571;SDS011;74587;45.880;11.484;2024-01-15T06:47:35;14.60;;;5.07;;
59571;SDS011;74587;45.880;11.484;2024-01-15T06:50:00;15.00;;;5.93;;
59571;SDS011;74587;45.880;11.484;2024-01-15T06:52:26;11.07;;;3.70;;
59571;SDS011;74587;45.880;11.484;2024-01-15T06:54:52;10.65;;;3.63;;
59571;SDS011;74587;45.880;11.484;2024-01-15T06:57:18;10.23;;;3.87;;
59571;SDS011;74587;45.880;11.484;2024-01-15T06:59:45;11.57;;;3.97;;
59571;SDS011;74587;45.880;11.484;2024-01-15T07:02:10;9.73;;;3.70;;
59571;SDS011;74587;45.880;11.484;2024-01-15T07:04:37;9.18;;;3.42;;
59571;SDS011;74587;45.880;11.484;2024-01-15T07:07:03;9.32;;;3.25;;
59571;SDS011;74587;45.880;11.484;2024-01-15T07:09:29;10.13;;;3.23;;
59571;SDS011;74587;45.880;11.484;2024-01-15T07:11:55;7.47;;;2.75;;
59571;SDS011;74587;45.880;11.484;2024-01-15T07:14:22;7.27;;;2.57;;
59571;SDS011;74587;45.880;11.484;2024-01-15T07:16:48;8.57;;;2.75;;
59571;SDS011;74587;45.880;11.484;2024-01-15T07:19:14;8.13;;;2.83;;
59571;SDS011;74587;45.880;11.484;2024-01-15T07:21:39;9.32;;;2.85;;
59571;SDS011;74587;45.880;11.484;2024-01-15T07:24:07;11.85;;;3.85;;
59571;SDS011;74587;45.880;11.484;2024-01-15T07:26:33;9.10;;;2.80;;
59571;SDS011;74587;45.880;11.484;2024-01-15T07:28:59;7.80;;;2.00;;
59571;SDS011;74587;45.880;11.484;2024-01-15T07:31:24;8.10;;;2.40;;
59571;SDS011;74587;45.880;11.484;2024-01-15T07:33:53;9.53;;;2.70;;
59571;SDS011;74587;45.880;11.484;2024-01-15T07:36:18;14.38;;;5.07;;
59571;SDS011;74587;45.880;11.484;2024-01-15T07:38:44;15.03;;;6.20;;
59571;SDS011;74587;45.880;11.484;2024-01-15T07:41:10;11.57;;;4.30;;
59571;SDS011;74587;45.880;11.484;2024-01-15T07:43:36;11.23;;;3.70;;
59571;SDS011;74587;45.880;11.484;2024-01-15T07:46:04;7.77;;;2.33;;
59571;SDS011;74587;45.880;11.484;2024-01-15T07:48:29;9.15;;;3.13;;
59571;SDS011;74587;45.880;11.484;2024-01-15T07:50:55;7.68;;;2.22;;
59571;SDS011;74587;45.880;11.484;2024-01-15T07:53:21;6.57;;;2.13;;
59571;SDS011;74587;45.880;11.484;2024-01-15T07:55:47;8.32;;;2.33;;
59571;SDS011;74587;45.880;11.484;2024-01-15T07:58:12;7.20;;;2.07;;
59571;SDS011;74587;45.880;11.484;2024-01-15T08:00:38;9.30;;;2.47;;
59571;SDS011;74587;45.880;11.484;2024-01-15T08:03:07;7.72;;;2.58;;
59571;SDS011;74587;45.880;11.484;2024-01-15T08:05:32;8.40;;;2.23;;
59571;SDS011;74587;45.880;11.484;2024-01-15T08:07:58;8.88;;;2.40;;
59571;SDS011;74587;45.880;11.484;2024-01-15T08:10:24;6.80;;;2.27;;
59571;SDS011;74587;45.880;11.484;2024-01-15T08:12:50;8.60;;;2.40;;
59571;SDS011;74587;45.880;11.484;2024-01-15T08:15:15;8.07;;;2.60;;
59571;SDS011;74587;45.880;11.484;2024-01-15T08:17:42;8.15;;;2.35;;
59571;SDS011;74587;45.880;11.484;2024-01-15T08:20:08;9.65;;;2.80;;
59571;SDS011;74587;45.880;11.484;2024-01-15T08:22:35;8.00;;;2.30;;
59571;SDS011;74587;45.880;11.484;2024-01-15T08:25:02;9.45;;;2.72;;
59571;SDS011;74587;45.880;11.484;2024-01-15T08:27:28;6.13;;;2.10;;
59571;SDS011;74587;45.880;11.484;2024-01-15T08:29:54;7.57;;;1.90;;
59571;SDS011;74587;45.880;11.484;2024-01-15T08:32:20;9.20;;;2.63;;
59571;SDS011;74587;45.880;11.484;2024-01-15T08:34:46;7.43;;;2.45;;
59571;SDS011;74587;45.880;11.484;2024-01-15T08:37:14;8.60;;;2.40;;
59571;SDS011;74587;45.880;11.484;2024-01-15T08:39:40;13.17;;;5.80;;
59571;SDS011;74587;45.880;11.484;2024-01-15T08:42:05;8.93;;;3.42;;
59571;SDS011;74587;45.880;11.484;2024-01-15T08:44:31;10.25;;;3.25;;
59571;SDS011;74587;45.880;11.484;2024-01-15T08:46:57;9.37;;;4.20;;
59571;SDS011;74587;45.880;11.484;2024-01-15T08:49:23;16.13;;;7.90;;
59571;SDS011;74587;45.880;11.484;2024-01-15T08:51:48;18.13;;;9.10;;
59571;SDS011;74587;45.880;11.484;2024-01-15T08:54:14;20.48;;;9.35;;
59571;SDS011;74587;45.880;11.484;2024-01-15T08:56:40;24.27;;;9.37;;
59571;SDS011;74587;45.880;11.484;2024-01-15T08:59:06;19.85;;;8.70;;
59571;SDS011;74587;45.880;11.484;2024-01-15T09:01:32;21.23;;;10.13;;
59571;SDS011;74587;45.880;11.484;2024-01-15T09:03:58;49.57;;;24.70;;
59571;SDS011;74587;45.880;11.484;2024-01-15T09:06:24;18.67;;;9.43;;
59571;SDS011;74587;45.880;11.484;2024-01-15T09:08:49;18.00;;;8.47;;
59571;SDS011;74587;45.880;11.484;2024-01-15T09:11:15;20.50;;;10.85;;
59571;SDS011;74587;45.880;11.484;2024-01-15T09:13:41;20.88;;;9.48;;
59571;SDS011;74587;45.880;11.484;2024-01-15T09:16:07;15.43;;;6.83;;
59571;SDS011;74587;45.880;11.484;2024-01-15T09:18:32;13.95;;;5.60;;
59571;SDS011;74587;45.880;11.484;2024-01-15T09:23:34;22.80;;;12.52;;
59571;SDS011;74587;45.880;11.484;2024-01-15T09:26:00;11.80;;;5.50;;
59571;SDS011;74587;45.880;11.484;2024-01-15T10:04:46;9.10;;;3.95;;
59571;SDS011;74587;45.880;11.484;2024-01-15T10:07:15;11.55;;;4.20;;
59571;SDS011;74587;45.880;11.484;2024-01-15T10:09:44;9.10;;;2.97;;
59571;SDS011;74587;45.880;11.484;2024-01-15T10:12:10;10.35;;;3.67;;
59571;SDS011;74587;45.880;11.484;2024-01-15T10:14:37;9.43;;;4.15;;
59571;SDS011;74587;45.880;11.484;2024-01-15T10:44:31;7.65;;;3.20;;
59571;SDS011;74587;45.880;11.484;2024-01-15T10:50:23;10.40;;;3.50;;
59571;SDS011;74587;45.880;11.484;2024-01-15T10:52:49;9.30;;;2.88;;
59571;SDS011;74587;45.880;11.484;2024-01-15T10:55:16;9.55;;;2.38;;
59571;SDS011;74587;45.880;11.484;2024-01-15T10:57:46;9.63;;;3.47;;
59571;SDS011;74587;45.880;11.484;2024-01-15T11:00:14;5.87;;;2.30;;
59571;SDS011;74587;45.880;11.484;2024-01-15T11:02:40;7.13;;;2.55;;
59571;SDS011;74587;45.880;11.484;2024-01-15T11:05:07;11.63;;;3.38;;
59571;SDS011;74587;45.880;11.484;2024-01-15T11:07:33;8.45;;;2.70;;
59571;SDS011;74587;45.880;11.484;2024-01-15T11:09:59;10.32;;;3.00;;
59571;SDS011;74587;45.880;11.484;2024-01-15T11:12:28;7.63;;;2.80;;
59571;SDS011;74587;45.880;11.484;2024-01-15T11:15:01;8.77;;;2.85;;
59571;SDS011;74587;45.880;11.484;2024-01-15T11:20:30;10.45;;;3.58;;
59571;SDS011;74587;45.880;11.484;2024-01-15T11:22:57;9.07;;;3.20;;
59571;SDS011;74587;45.880;11.484;2024-01-15T11:25:24;7.90;;;2.67;;
59571;SDS011;74587;45.880;11.484;2024-01-15T11:28:01;11.65;;;4.13;;
59571;SDS011;74587;45.880;11.484;2024-01-15T11:30:27;9.60;;;3.53;;
59571;SDS011;74587;45.880;11.484;2024-01-15T11:32:53;9.43;;;3.77;;
59571;SDS011;74587;45.880;11.484;2024-01-15T11:35:18;10.95;;;3.50;;
59571;SDS011;74587;45.880;11.484;2024-01-15T11:40:23;11.38;;;3.90;;
59571;SDS011;74587;45.880;11.484;2024-01-15T11:43:05;10.68;;;4.00;;
59571;SDS011;74587;45.880;11.484;2024-01-15T11:45:34;12.32;;;4.57;;
59571;SDS011;74587;45.880;11.484;2024-01-15T11:48:13;11.73;;;4.63;;
59571;SDS011;74587;45.880;11.484;2024-01-15T11:53:33;12.00;;;5.38;;
59571;SDS011;74587;45.880;11.484;2024-01-15T11:56:06;13.07;;;4.93;;
59571;SDS011;74587;45.880;11.484;2024-01-15T11:58:43;12.60;;;6.07;;
59571;SDS011;74587;45.880;11.484;2024-01-15T12:01:13;15.93;;;6.32;;
59571;SDS011;74587;45.880;11.484;2024-01-15T12:03:38;13.37;;;6.20;;
59571;SDS011;74587;45.880;11.484;2024-01-15T12:06:05;15.43;;;5.32;;
59571;SDS011;74587;45.880;11.484;2024-01-15T12:08:32;18.80;;;6.90;;
59571;SDS011;74587;45.880;11.484;2024-01-15T12:10:57;14.43;;;6.10;;
59571;SDS011;74587;45.880;11.484;2024-01-15T12:13:23;12.32;;;5.25;;
59571;SDS011;74587;45.880;11.484;2024-01-15T12:15:49;14.00;;;5.78;;
59571;SDS011;74587;45.880;11.484;2024-01-15T12:18:16;18.83;;;6.40;;
59571;SDS011;74587;45.880;11.484;2024-01-15T12:20:44;14.50;;;6.20;;
59571;SDS011;74587;45.880;11.484;2024-01-15T12:23:12;16.33;;;5.97;;
59571;SDS011;74587;45.880;11.484;2024-01-15T12:25:38;16.88;;;6.60;;
59571;SDS011;74587;45.880;11.484;2024-01-15T12:28:05;16.53;;;5.50;;
59571;SDS011;74587;45.880;11.484;2024-01-15T12:30:32;16.13;;;6.22;;
59571;SDS011;74587;45.880;11.484;2024-01-15T12:33:02;17.15;;;7.05;;
59571;SDS011;74587;45.880;11.484;2024-01-15T12:35:29;13.18;;;5.93;;
59571;SDS011;74587;45.880;11.484;2024-01-15T12:37:55;15.40;;;6.82;;
59571;SDS011;74587;45.880;11.484;2024-01-15T12:40:21;17.67;;;6.73;;
59571;SDS011;74587;45.880;11.484;2024-01-15T12:42:48;18.60;;;8.27;;
59571;SDS011;74587;45.880;11.484;2024-01-15T12:45:14;16.48;;;6.85;;
59571;SDS011;74587;45.880;11.484;2024-01-15T12:47:40;13.53;;;6.33;;
59571;SDS011;74587;45.880;11.484;2024-01-15T12:50:07;13.45;;;5.20;;
59571;SDS011;74587;45.880;11.484;2024-01-15T12:52:37;14.77;;;7.57;;
59571;SDS011;74587;45.880;11.484;2024-01-15T12:55:06;16.77;;;6.50;;
59571;SDS011;74587;45.880;11.484;2024-01-15T12:57:34;13.57;;;5.90;;
59571;SDS011;74587;45.880;11.484;2024-01-15T13:00:00;11.60;;;4.53;;
59571;SDS011;74587;45.880;11.484;2024-01-15T13:02:26;16.92;;;6.85;;
59571;SDS011;74587;45.880;11.484;2024-01-15T13:04:54;19.63;;;8.00;;
59571;SDS011;74587;45.880;11.484;2024-01-15T13:07:20;21.75;;;8.30;;
59571;SDS011;74587;45.880;11.484;2024-01-15T13:09:46;19.97;;;7.90;;
59571;SDS011;74587;45.880;11.484;2024-01-15T13:12:12;16.92;;;7.15;;
59571;SDS011;74587;45.880;11.484;2024-01-15T13:14:37;17.17;;;7.03;;
59571;SDS011;74587;45.880;11.484;2024-01-15T13:17:03;17.75;;;7.22;;
59571;SDS011;74587;45.880;11.484;2024-01-15T13:19:29;20.05;;;9.02;;
59571;SDS011;74587;45.880;11.484;2024-01-15T13:21:55;19.77;;;7.00;;
59571;SDS011;74587;45.880;11.484;2024-01-15T13:24:23;17.80;;;7.30;;
59571;SDS011;74587;45.880;11.484;2024-01-15T13:26:49;20.27;;;8.53;;
59571;SDS011;74587;45.880;11.484;2024-01-15T13:29:15;18.88;;;7.18;;
59571;SDS011;74587;45.880;11.484;2024-01-15T13:31:40;18.47;;;8.33;;
59571;SDS011;74587;45.880;11.484;2024-01-15T13:34:06;21.40;;;8.60;;
59571;SDS011;74587;45.880;11.484;2024-01-15T13:36:32;18.55;;;7.68;;
59571;SDS011;74587;45.880;11.484;2024-01-15T13:38:58;20.63;;;7.83;;
59571;SDS011;74587;45.880;11.484;2024-01-15T13:41:24;17.48;;;7.93;;
59571;SDS011;74587;45.880;11.484;2024-01-15T13:43:52;19.23;;;8.20;;
59571;SDS011;74587;45.880;11.484;2024-01-15T13:46:24;18.20;;;7.95;;
59571;SDS011;74587;45.880;11.484;2024-01-15T13:48:54;19.70;;;8.37;;
59571;SDS011;74587;45.880;11.484;2024-01-15T13:51:23;20.40;;;8.85;;
59571;SDS011;74587;45.880;11.484;2024-01-15T13:53:49;21.58;;;8.82;;
59571;SDS011;74587;45.880;11.484;2024-01-15T13:56:15;19.85;;;8.48;;
59571;SDS011;74587;45.880;11.484;2024-01-15T13:58:41;18.40;;;8.55;;
59571;SDS011;74587;45.880;11.484;2024-01-15T14:01:08;22.20;;;9.27;;
59571;SDS011;74587;45.880;11.484;2024-01-15T14:03:34;19.13;;;7.95;;
59571;SDS011;74587;45.880;11.484;2024-01-15T14:06:00;23.42;;;9.15;;
59571;SDS011;74587;45.880;11.484;2024-01-15T14:08:28;25.17;;;8.60;;
59571;SDS011;74587;45.880;11.484;2024-01-15T14:10:54;25.83;;;9.43;;
59571;SDS011;74587;45.880;11.484;2024-01-15T14:13:22;23.67;;;9.75;;
59571;SDS011;74587;45.880;11.484;2024-01-15T14:15:47;24.33;;;9.13;;
59571;SDS011;74587;45.880;11.484;2024-01-15T14:18:15;25.85;;;10.63;;
59571;SDS011;74587;45.880;11.484;2024-01-15T14:20:41;21.88;;;8.77;;
59571;SDS011;74587;45.880;11.484;2024-01-15T14:23:08;20.00;;;10.27;;
59571;SDS011;74587;45.880;11.484;2024-01-15T14:25:34;23.47;;;9.57;;
59571;SDS011;74587;45.880;11.484;2024-01-15T14:28:00;22.30;;;10.23;;
59571;SDS011;74587;45.880;11.484;2024-01-15T14:30:25;25.77;;;9.88;;
59571;SDS011;74587;45.880;11.484;2024-01-15T14:32:51;24.87;;;10.77;;
59571;SDS011;74587;45.880;11.484;2024-01-15T14:35:17;24.35;;;10.45;;
59571;SDS011;74587;45.880;11.484;2024-01-15T14:37:42;26.10;;;10.93;;
59571;SDS011;74587;45.880;11.484;2024-01-15T14:40:08;22.65;;;9.95;;
59571;SDS011;74587;45.880;11.484;2024-01-15T14:42:40;27.77;;;11.37;;
59571;SDS011;74587;45.880;11.484;2024-01-15T14:45:06;23.85;;;10.30;;
59571;SDS011;74587;45.880;11.484;2024-01-15T14:47:37;22.52;;;9.57;;
59571;SDS011;74587;45.880;11.484;2024-01-15T14:50:04;26.85;;;11.55;;
59571;SDS011;74587;45.880;11.484;2024-01-15T14:52:31;29.55;;;10.60;;
59571;SDS011;74587;45.880;11.484;2024-01-15T14:54:56;25.73;;;10.90;;
59571;SDS011;74587;45.880;11.484;2024-01-15T14:57:22;27.73;;;11.43;;
59571;SDS011;74587;45.880;11.484;2024-01-15T14:59:48;26.43;;;12.40;;
59571;SDS011;74587;45.880;11.484;2024-01-15T15:02:14;28.15;;;12.07;;
59571;SDS011;74587;45.880;11.484;2024-01-15T15:04:40;24.83;;;10.38;;
59571;SDS011;74587;45.880;11.484;2024-01-15T15:07:06;26.57;;;10.73;;
59571;SDS011;74587;45.880;11.484;2024-01-15T15:09:32;28.38;;;12.23;;
59571;SDS011;74587;45.880;11.484;2024-01-15T15:11:59;25.98;;;11.23;;
59571;SDS011;74587;45.880;11.484;2024-01-15T15:14:25;27.45;;;12.32;;
59571;SDS011;74587;45.880;11.484;2024-01-15T15:16:52;26.37;;;11.67;;
59571;SDS011;74587;45.880;11.484;2024-01-15T15:19:17;25.58;;;12.20;;
59571;SDS011;74587;45.880;11.484;2024-01-15T15:21:44;29.67;;;12.93;;
59571;SDS011;74587;45.880;11.484;2024-01-15T15:24:10;25.07;;;12.17;;
59571;SDS011;74587;45.880;11.484;2024-01-15T15:26:36;27.10;;;12.45;;
59571;SDS011;74587;45.880;11.484;2024-01-15T15:29:02;25.33;;;11.95;;
59571;SDS011;74587;45.880;11.484;2024-01-15T15:31:28;24.17;;;10.20;;
59571;SDS011;74587;45.880;11.484;2024-01-15T15:33:54;32.13;;;12.23;;
59571;SDS011;74587;45.880;11.484;2024-01-15T15:36:19;31.67;;;13.83;;
59571;SDS011;74587;45.880;11.484;2024-01-15T15:38:45;40.53;;;18.13;;
59571;SDS011;74587;45.880;11.484;2024-01-15T15:41:11;29.15;;;13.32;;